Kinrikimaru — JL6545 — position and weather

sailwx.info

Track history (hours):
 
Tides and Currents Weather Stations Pressure Air Temp Water Temp Dewpoint Dewpoint Depression Visibility Wind Speed Wind Dir Waves Ship Positions

Kinrikimaru

Last reported at 2015-Sep-01 12:19 UTC. Time now 2015-Sep-02 12:53 UTC.
Position N 34°38' E 138°37'.

Length 76 m; draft 4 m.

Type: Cargo ship. MMSI: 431500615.

Date/timePositionNaut miles runAvg speedWind from/ knotsBaromVisibWave heightAir tempDewpointWater temp
2015-Sep-01 12:19N 34°38' E 138°37'5010.6
2015-Sep-01 07:33N 35°02' E 139°31'1313.2
2015-Sep-01 06:33N 35°09' E 139°44'1111.3
2015-Sep-01 05:33N 35°20' E 139°42'9 9.3
2015-Sep-01 04:33N 35°30' E 139°43'0 0.0
2015-Sep-01 03:33N 35°30' E 139°43'0 0.0
2015-Sep-01 02:33N 35°30' E 139°43'0 0.0
2015-Sep-01 01:33N 35°30' E 139°43'0 0.0
2015-Sep-01 00:33N 35°30' E 139°43'0 0.0
2015-Aug-31 23:33N 35°30' E 139°43'2 2.2
2015-Aug-31 22:33N 35°28' E 139°43'5 4.7
2015-Aug-31 21:33N 35°24' E 139°46'1211.6
2015-Aug-31 20:33N 35°12' E 139°47'1212.3
2015-Aug-31 19:33N 35°02' E 139°38'237 8.8
2015-Aug-30 16:32N 34°01' E 135°00'1312.8
2015-Aug-30 15:32N 34°14' E 134°59'20 0.6
2015-Aug-29 05:30N 34°29' E 135°14'228 9.1
2015-Aug-28 04:34N 35°16' E 139°46'1212.0
2015-Aug-28 03:33N 35°28' E 139°42'3 2.5
2015-Aug-28 02:31N 35°30' E 139°44'0 0.0
2015-Aug-28 01:31N 35°30' E 139°44'0 0.0
2015-Aug-28 00:31N 35°30' E 139°44'0 0.0
2015-Aug-27 23:31N 35°30' E 139°44'1 1.4
2015-Aug-27 22:33N 35°29' E 139°43'3 2.6
2015-Aug-27 21:31N 35°27' E 139°43'0 0.0
2015-Aug-27 20:31N 35°27' E 139°43'0 0.0
2015-Aug-27 19:31N 35°27' E 139°43'0 0.0
2015-Aug-27 18:31N 35°27' E 139°43'0 0.0
2015-Aug-27 17:31N 35°27' E 139°43'0 0.0
2015-Aug-27 16:31N 35°27' E 139°43'0 0.0
2015-Aug-27 15:31N 35°27' E 139°43'0 0.0
2015-Aug-27 14:31N 35°27' E 139°43'4 4.3
2015-Aug-27 13:34N 35°22' E 139°43'1211.8
2015-Aug-27 12:33N 35°11' E 139°47'247 9.8
2015-Aug-26 11:30N 34°01' E 134°59'1312.3
2015-Aug-26 10:24N 34°14' E 134°59'1010.4
2015-Aug-26 09:25N 34°24' E 135°03'1113.0
2015-Aug-26 08:33N 34°31' E 135°13'1110.6
2015-Aug-26 07:33N 34°35' E 135°25'0 0.0
2015-Aug-26 01:31N 34°35' E 135°26'9 9.0
2015-Aug-26 00:33N 34°35' E 135°15'  
Track history (hours):
 
Tides and Currents Weather Stations Pressure Air Temp Water Temp Dewpoint Dewpoint Depression Visibility Wind Speed Wind Dir Waves Ship Positions

Kinrikimaru

Last reported at 2015-Sep-01 12:19 UTC. Time now 2015-Sep-02 12:53 UTC.
Position N 34°38' E 138°37'.

Length 76 m; draft 4 m.

Type: Cargo ship. MMSI: 431500615.

Date/timePositionNaut miles runAvg speedWind from/ knotsBaromVisibWave heightAir tempDewpointWater temp
2015-Sep-01 12:19N 34°38' E 138°37'5010.6
2015-Sep-01 07:33N 35°02' E 139°31'1313.2
2015-Sep-01 06:33N 35°09' E 139°44'1111.3
2015-Sep-01 05:33N 35°20' E 139°42'9 9.3
2015-Sep-01 04:33N 35°30' E 139°43'0 0.0
2015-Sep-01 03:33N 35°30' E 139°43'0 0.0
2015-Sep-01 02:33N 35°30' E 139°43'0 0.0
2015-Sep-01 01:33N 35°30' E 139°43'0 0.0
2015-Sep-01 00:33N 35°30' E 139°43'0 0.0
2015-Aug-31 23:33N 35°30' E 139°43'2 2.2
2015-Aug-31 22:33N 35°28' E 139°43'5 4.7
2015-Aug-31 21:33N 35°24' E 139°46'1211.6
2015-Aug-31 20:33N 35°12' E 139°47'1212.3
2015-Aug-31 19:33N 35°02' E 139°38'237 8.8
2015-Aug-30 16:32N 34°01' E 135°00'1312.8
2015-Aug-30 15:32N 34°14' E 134°59'20 0.6
2015-Aug-29 05:30N 34°29' E 135°14'228 9.1
2015-Aug-28 04:34N 35°16' E 139°46'1212.0
2015-Aug-28 03:33N 35°28' E 139°42'3 2.5
2015-Aug-28 02:31N 35°30' E 139°44'0 0.0
2015-Aug-28 01:31N 35°30' E 139°44'0 0.0
2015-Aug-28 00:31N 35°30' E 139°44'0 0.0
2015-Aug-27 23:31N 35°30' E 139°44'1 1.4
2015-Aug-27 22:33N 35°29' E 139°43'3 2.6
2015-Aug-27 21:31N 35°27' E 139°43'0 0.0
2015-Aug-27 20:31N 35°27' E 139°43'0 0.0
2015-Aug-27 19:31N 35°27' E 139°43'0 0.0
2015-Aug-27 18:31N 35°27' E 139°43'0 0.0
2015-Aug-27 17:31N 35°27' E 139°43'0 0.0
2015-Aug-27 16:31N 35°27' E 139°43'0 0.0
2015-Aug-27 15:31N 35°27' E 139°43'0 0.0
2015-Aug-27 14:31N 35°27' E 139°43'4 4.3
2015-Aug-27 13:34N 35°22' E 139°43'1211.8
2015-Aug-27 12:33N 35°11' E 139°47'247 9.8
2015-Aug-26 11:30N 34°01' E 134°59'1312.3
2015-Aug-26 10:24N 34°14' E 134°59'1010.4
2015-Aug-26 09:25N 34°24' E 135°03'1113.0
2015-Aug-26 08:33N 34°31' E 135°13'1110.6
2015-Aug-26 07:33N 34°35' E 135°25'0 0.0
2015-Aug-26 01:31N 34°35' E 135°26'9 9.0
2015-Aug-26 00:33N 34°35' E 135°15'  

Dump ship's entire track history